Time;durP1;ratioP1;P1;durP2;ratioP2;P2;SDS_P1;SDS_P2;PMS_P1;PMS_P2;Temp;Humidity;BMP_temperature;BMP_pressure;BME280_temperature;BME280_humidity;BME280_pressure;Samples;Min_cycle;Max_cycle;Signal;HPM_P1;HPM_P2
2021/12/11 00:01:59;;;;;;;48.33;22.20;;;;;;;;;;5084921;28;20820;-82
2021/12/11 00:04:29;;;;;;;43.03;23.73;;;;;;;;;;5086660;28;20463;-82
2021/12/11 00:06:56;;;;;;;32.83;20.73;;;;;;;;;;5086795;28;20444;-82
2021/12/11 00:09:23;;;;;;;38.10;21.37;;;;;;;;;;5085219;28;20482;-82
2021/12/11 00:11:51;;;;;;;46.87;23.33;;;;;;;;;;5084811;28;20455;-82
2021/12/11 00:14:19;;;;;;;47.27;24.53;;;;;;;;;;5085215;28;20466;-82
2021/12/11 00:16:45;;;;;;;50.43;23.10;;;;;;;;;;5086521;28;20508;-82
2021/12/11 00:19:13;;;;;;;44.77;22.10;;;;;;;;;;5086378;28;20527;-82
2021/12/11 00:21:40;;;;;;;42.23;22.13;;;;;;;;;;5085750;28;20446;-82
2021/12/11 00:24:09;;;;;;;39.63;22.30;;;;;;;;;;5087593;28;20482;-82
2021/12/11 00:26:36;;;;;;;37.00;21.20;;;;;;;;;;5083404;28;20536;-82
2021/12/11 00:29:03;;;;;;;44.90;22.67;;;;;;;;;;5085572;28;20470;-82
2021/12/11 00:31:32;;;;;;;49.97;21.70;;;;;;;;;;5087763;28;20455;-82
2021/12/11 00:33:59;;;;;;;41.60;22.50;;;;;;;;;;5083798;28;21007;-83
2021/12/11 00:36:28;;;;;;;35.07;20.13;;;;;;;;;;5085021;28;20519;-82
2021/12/11 00:38:54;;;;;;;40.77;22.20;;;;;;;;;;5082908;28;20488;-82
2021/12/11 00:41:24;;;;;;;34.60;20.23;;;;;;;;;;5084818;28;20459;-82
2021/12/11 00:43:51;;;;;;;38.03;21.50;;;;;;;;;;5083546;28;20465;-82
2021/12/11 00:46:18;;;;;;;42.00;20.40;;;;;;;;;;5086391;28;20514;-82
2021/12/11 00:48:46;;;;;;;35.03;20.27;;;;;;;;;;5084204;28;20489;-82
2021/12/11 00:51:13;;;;;;;38.70;20.97;;;;;;;;;;5085897;28;20454;-82
2021/12/11 00:53:42;;;;;;;42.07;22.23;;;;;;;;;;5083951;28;20883;-83
2021/12/11 00:56:10;;;;;;;46.10;22.73;;;;;;;;;;5083807;28;20982;-82
2021/12/11 00:58:38;;;;;;;46.30;21.40;;;;;;;;;;5082962;28;20483;-82
2021/12/11 01:01:09;;;;;;;40.40;20.03;;;;;;;;;;5086038;28;20454;-82
2021/12/11 01:03:36;;;;;;;44.20;22.77;;;;;;;;;;5085129;28;20519;-83
2021/12/11 01:06:08;;;;;;;38.17;19.30;;;;;;;;;;5083282;28;20457;-82
2021/12/11 01:08:35;;;;;;;34.43;19.63;;;;;;;;;;5084059;28;20907;-83
2021/12/11 01:11:05;;;;;;;40.27;21.47;;;;;;;;;;5085226;28;20450;-82
2021/12/11 01:13:34;;;;;;;43.60;21.67;;;;;;;;;;5083138;28;20488;-82
2021/12/11 01:16:05;;;;;;;42.67;21.30;;;;;;;;;;5084451;28;21066;-82
2021/12/11 01:18:37;;;;;;;41.50;21.70;;;;;;;;;;5083966;28;20479;-83
2021/12/11 01:21:14;;;;;;;46.83;23.43;;;;;;;;;;5084027;28;20470;-82
2021/12/11 01:23:57;;;;;;;47.07;22.30;;;;;;;;;;5084612;28;20468;-83
2021/12/11 01:26:23;;;;;;;41.43;20.97;;;;;;;;;;5085023;28;20895;-83
2021/12/11 01:28:50;;;;;;;41.93;21.53;;;;;;;;;;5080039;28;20471;-82
2021/12/11 01:31:17;;;;;;;39.50;22.47;;;;;;;;;;5085143;28;20578;-83
2021/12/11 01:33:43;;;;;;;41.90;21.00;;;;;;;;;;5083589;28;20540;-82
2021/12/11 01:36:12;;;;;;;43.87;21.50;;;;;;;;;;5084162;28;20450;-82
2021/12/11 01:38:40;;;;;;;52.83;22.80;;;;;;;;;;5080813;28;20845;-82
2021/12/11 01:41:08;;;;;;;36.27;21.50;;;;;;;;;;5081772;28;20549;-82
2021/12/11 01:43:36;;;;;;;40.37;21.50;;;;;;;;;;5084679;28;20555;-82
2021/12/11 01:46:03;;;;;;;39.97;21.23;;;;;;;;;;5082380;28;20893;-83
2021/12/11 01:48:31;;;;;;;44.50;22.40;;;;;;;;;;5082202;28;20461;-83
2021/12/11 01:51:00;;;;;;;39.67;22.73;;;;;;;;;;5090369;28;20535;-82
2021/12/11 01:53:32;;;;;;;44.90;22.20;;;;;;;;;;5085096;28;20598;-82
2021/12/11 01:56:00;;;;;;;40.10;20.23;;;;;;;;;;5088892;28;20462;-82
2021/12/11 01:58:27;;;;;;;48.00;22.73;;;;;;;;;;5087107;28;20487;-82
2021/12/11 02:00:56;;;;;;;42.73;22.97;;;;;;;;;;5087247;28;20477;-82
2021/12/11 02:03:24;;;;;;;35.27;20.07;;;;;;;;;;5086737;28;20473;-82
2021/12/11 02:05:51;;;;;;;40.70;19.80;;;;;;;;;;5090210;28;20504;-82
2021/12/11 02:08:19;;;;;;;44.17;21.27;;;;;;;;;;5088758;28;20483;-82
2021/12/11 02:10:47;;;;;;;43.20;20.63;;;;;;;;;;5087146;28;20465;-82
2021/12/11 02:13:18;;;;;;;35.67;19.70;;;;;;;;;;5090613;28;20466;-82
2021/12/11 02:15:48;;;;;;;41.13;20.67;;;;;;;;;;5088298;28;20500;-82
2021/12/11 02:18:17;;;;;;;37.73;19.90;;;;;;;;;;5087318;28;20569;-82
2021/12/11 02:20:45;;;;;;;43.20;22.53;;;;;;;;;;5088793;28;20475;-82
2021/12/11 02:23:14;;;;;;;38.10;20.93;;;;;;;;;;5091650;28;20495;-82
2021/12/11 02:25:44;;;;;;;44.97;20.63;;;;;;;;;;5086367;28;20473;-82
2021/12/11 02:28:12;;;;;;;42.80;21.50;;;;;;;;;;5088967;28;20874;-82
2021/12/11 02:30:42;;;;;;;38.60;20.13;;;;;;;;;;5087701;28;20554;-83
2021/12/11 02:33:13;;;;;;;41.73;22.10;;;;;;;;;;5089827;28;20482;-82
2021/12/11 02:35:41;;;;;;;36.90;19.37;;;;;;;;;;5087565;28;20481;-82
2021/12/11 02:38:11;;;;;;;42.70;20.30;;;;;;;;;;5087767;28;20479;-82
2021/12/11 02:40:41;;;;;;;34.17;18.47;;;;;;;;;;5089918;28;20485;-83
2021/12/11 02:43:10;;;;;;;37.10;19.80;;;;;;;;;;5102843;22;20481;-81
2021/12/11 02:45:39;;;;;;;33.90;20.37;;;;;;;;;;5070032;28;20474;-81
2021/12/11 02:48:07;;;;;;;41.60;20.40;;;;;;;;;;5071409;28;20439;-79
2021/12/11 02:50:36;;;;;;;36.93;20.10;;;;;;;;;;5066569;28;20475;-81
2021/12/11 02:53:04;;;;;;;44.90;20.40;;;;;;;;;;5069787;28;20463;-81
2021/12/11 02:55:34;;;;;;;46.23;21.07;;;;;;;;;;5068287;28;20471;-80
2021/12/11 02:58:04;;;;;;;30.97;19.03;;;;;;;;;;5067461;28;20478;-80
2021/12/11 03:00:32;;;;;;;38.27;17.50;;;;;;;;;;5069200;28;20470;-80
2021/12/11 03:03:03;;;;;;;35.97;18.50;;;;;;;;;;5069003;28;20479;-80
2021/12/11 03:05:37;;;;;;;31.30;17.83;;;;;;;;;;5068995;28;20467;-80
2021/12/11 03:08:05;;;;;;;43.23;22.33;;;;;;;;;;5068892;28;20443;-78
2021/12/11 03:10:32;;;;;;;42.93;21.40;;;;;;;;;;5067717;28;21365;-81
2021/12/11 03:12:58;;;;;;;39.43;21.33;;;;;;;;;;5068140;28;21008;-80
2021/12/11 03:15:26;;;;;;;38.67;22.30;;;;;;;;;;5067379;28;20480;-81
2021/12/11 03:17:52;;;;;;;34.67;18.53;;;;;;;;;;5069031;28;20456;-81
2021/12/11 03:20:20;;;;;;;40.00;19.30;;;;;;;;;;5067629;28;20471;-81
2021/12/11 03:22:47;;;;;;;35.80;20.27;;;;;;;;;;5067883;28;20462;-81
2021/12/11 03:25:15;;;;;;;37.37;19.17;;;;;;;;;;5067479;28;20495;-80
2021/12/11 03:27:41;;;;;;;32.27;18.37;;;;;;;;;;5067249;28;20463;-80
2021/12/11 03:30:10;;;;;;;40.83;18.10;;;;;;;;;;5066673;28;20731;-81
2021/12/11 03:32:38;;;;;;;41.67;21.13;;;;;;;;;;5067940;28;20459;-81
2021/12/11 03:35:04;;;;;;;41.23;20.00;;;;;;;;;;5067352;28;21271;-81
2021/12/11 03:37:30;;;;;;;41.07;22.00;;;;;;;;;;5068302;28;20980;-81
2021/12/11 03:39:57;;;;;;;40.70;20.73;;;;;;;;;;5067539;28;20490;-81
2021/12/11 03:42:25;;;;;;;45.83;22.43;;;;;;;;;;5069539;28;20497;-81
2021/12/11 03:44:51;;;;;;;39.60;20.50;;;;;;;;;;5067011;28;20486;-81
2021/12/11 03:47:19;;;;;;;41.73;20.57;;;;;;;;;;5067685;28;20479;-81
2021/12/11 03:49:47;;;;;;;43.03;22.70;;;;;;;;;;5067429;28;20525;-80
2021/12/11 03:52:16;;;;;;;41.80;20.70;;;;;;;;;;5067997;28;20444;-81
2021/12/11 03:54:43;;;;;;;42.70;21.80;;;;;;;;;;5061196;28;20478;-76
2021/12/11 03:57:10;;;;;;;50.50;23.73;;;;;;;;;;5064609;28;20452;-78
2021/12/11 03:59:36;;;;;;;42.00;22.63;;;;;;;;;;5063112;28;20485;-77
2021/12/11 04:02:05;;;;;;;41.43;21.17;;;;;;;;;;5063587;28;20443;-78
2021/12/11 04:04:34;;;;;;;52.07;23.10;;;;;;;;;;5064488;28;20483;-79
2021/12/11 04:07:04;;;;;;;38.07;20.30;;;;;;;;;;5063647;28;20504;-78
2021/12/11 04:09:31;;;;;;;42.83;22.80;;;;;;;;;;5063810;28;20459;-78
2021/12/11 04:11:57;;;;;;;44.43;23.13;;;;;;;;;;5062781;28;20447;-79
2021/12/11 04:14:25;;;;;;;43.80;21.67;;;;;;;;;;5061862;28;20479;-78
2021/12/11 04:16:52;;;;;;;37.13;22.77;;;;;;;;;;5063828;28;20463;-79
2021/12/11 04:19:19;;;;;;;46.50;23.73;;;;;;;;;;5062200;28;20975;-78
2021/12/11 04:21:46;;;;;;;35.63;18.97;;;;;;;;;;5064161;28;20439;-78
2021/12/11 04:24:14;;;;;;;40.33;20.63;;;;;;;;;;5062556;28;20475;-78
2021/12/11 04:26:41;;;;;;;32.07;18.73;;;;;;;;;;5064150;28;20455;-78
2021/12/11 04:29:08;;;;;;;39.83;19.53;;;;;;;;;;5062909;28;21008;-79
2021/12/11 04:31:35;;;;;;;32.73;17.80;;;;;;;;;;5064364;28;20462;-79
2021/12/11 04:34:03;;;;;;;36.60;17.80;;;;;;;;;;5061941;28;20476;-78
2021/12/11 04:36:30;;;;;;;33.43;18.87;;;;;;;;;;5063994;28;20459;-78
2021/12/11 04:38:57;;;;;;;41.90;20.00;;;;;;;;;;5063414;28;20593;-79
2021/12/11 04:41:29;;;;;;;39.20;19.10;;;;;;;;;;5063211;28;20819;-78
2021/12/11 04:43:56;;;;;;;41.93;21.93;;;;;;;;;;5061613;28;20468;-78
2021/12/11 04:46:23;;;;;;;36.53;19.93;;;;;;;;;;5063777;28;20486;-81
2021/12/11 04:48:57;;;;;;;41.73;23.33;;;;;;;;;;5064664;28;20475;-80
2021/12/11 04:51:27;;;;;;;36.60;18.20;;;;;;;;;;5067288;28;20936;-81
2021/12/11 04:54:03;;;;;;;38.77;20.73;;;;;;;;;;5067493;28;20544;-81
2021/12/11 04:57:05;;;;;;;33.87;18.77;;;;;;;;;;5067753;28;20458;-81
2021/12/11 04:59:45;;;;;;;39.93;19.23;;;;;;;;;;5065788;28;20479;-81
2021/12/11 05:02:39;;;;;;;39.30;19.73;;;;;;;;;;5068164;28;20479;-81
2021/12/11 05:05:13;;;;;;;32.03;19.13;;;;;;;;;;5064577;28;20486;-81
2021/12/11 05:07:45;;;;;;;40.63;20.90;;;;;;;;;;5069240;28;20466;-80
2021/12/11 05:10:17;;;;;;;40.63;20.60;;;;;;;;;;5065861;28;20509;-81
2021/12/11 05:12:46;;;;;;;42.07;22.73;;;;;;;;;;5068414;28;20634;-80
2021/12/11 05:15:14;;;;;;;35.00;20.70;;;;;;;;;;5068083;28;20475;-81
2021/12/11 05:17:41;;;;;;;35.13;19.30;;;;;;;;;;5070599;28;20455;-81
2021/12/11 05:20:08;;;;;;;42.33;21.23;;;;;;;;;;5066989;28;21020;-81
2021/12/11 05:22:34;;;;;;;36.03;20.20;;;;;;;;;;5067011;28;20600;-81
2021/12/11 05:25:01;;;;;;;35.07;21.63;;;;;;;;;;5066479;28;20532;-81
2021/12/11 05:27:27;;;;;;;44.87;20.00;;;;;;;;;;5066967;28;20489;-81
2021/12/11 05:29:55;;;;;;;44.40;20.80;;;;;;;;;;5066875;28;20472;-80
2021/12/11 05:32:23;;;;;;;36.77;21.30;;;;;;;;;;5067524;28;20456;-81
2021/12/11 05:34:50;;;;;;;35.63;18.90;;;;;;;;;;5062817;28;20544;-80
2021/12/11 05:37:17;;;;;;;39.37;21.13;;;;;;;;;;5067262;28;20513;-81
2021/12/11 05:39:43;;;;;;;39.67;21.17;;;;;;;;;;5064900;28;20502;-80
2021/12/11 05:42:09;;;;;;;40.13;20.80;;;;;;;;;;5067027;28;20474;-80
2021/12/11 05:44:36;;;;;;;42.40;22.10;;;;;;;;;;5066814;28;20505;-81
2021/12/11 05:47:05;;;;;;;34.87;21.60;;;;;;;;;;5068442;28;20451;-81
2021/12/11 05:49:32;;;;;;;39.63;20.50;;;;;;;;;;5066388;28;20471;-81
2021/12/11 05:52:00;;;;;;;38.50;20.73;;;;;;;;;;5067596;28;20469;-81
2021/12/11 05:54:27;;;;;;;39.77;19.73;;;;;;;;;;5068250;28;20476;-82
2021/12/11 05:56:56;;;;;;;33.83;20.30;;;;;;;;;;5068372;28;21143;-81
2021/12/11 05:59:23;;;;;;;34.30;19.17;;;;;;;;;;5069345;28;20561;-81
2021/12/11 06:01:51;;;;;;;43.70;24.20;;;;;;;;;;5067307;28;20473;-81
2021/12/11 06:04:20;;;;;;;41.03;22.20;;;;;;;;;;5068071;28;20479;-82
2021/12/11 06:06:47;;;;;;;35.70;20.30;;;;;;;;;;5066423;28;20520;-81
2021/12/11 06:09:15;;;;;;;38.07;20.13;;;;;;;;;;5065612;28;20472;-82
2021/12/11 06:11:42;;;;;;;40.47;19.37;;;;;;;;;;5066451;28;20463;-82
2021/12/11 06:14:08;;;;;;;39.23;21.30;;;;;;;;;;5067137;28;20486;-81
2021/12/11 06:16:35;;;;;;;34.90;19.47;;;;;;;;;;5067116;28;20962;-82
2021/12/11 06:19:04;;;;;;;39.17;19.17;;;;;;;;;;5065998;28;20479;-81
2021/12/11 06:21:33;;;;;;;34.77;19.00;;;;;;;;;;5064158;28;20487;-78
2021/12/11 06:24:00;;;;;;;36.90;20.00;;;;;;;;;;5059078;28;20478;-78
2021/12/11 06:26:27;;;;;;;34.43;18.23;;;;;;;;;;5062364;28;20497;-77
2021/12/11 06:28:53;;;;;;;32.63;19.47;;;;;;;;;;5061614;28;20463;-78
2021/12/11 06:31:19;;;;;;;40.90;20.20;;;;;;;;;;5062778;28;20524;-78
2021/12/11 06:33:46;;;;;;;40.37;19.50;;;;;;;;;;5062369;28;21015;-79
2021/12/11 06:36:14;;;;;;;36.90;18.60;;;;;;;;;;5060361;28;20459;-78
2021/12/11 06:38:42;;;;;;;33.90;19.40;;;;;;;;;;5065178;28;21028;-78
2021/12/11 06:41:10;;;;;;;32.30;19.10;;;;;;;;;;5061787;28;20460;-79
2021/12/11 06:43:37;;;;;;;30.30;17.10;;;;;;;;;;5064323;28;20495;-78
2021/12/11 06:46:04;;;;;;;27.50;17.03;;;;;;;;;;5067808;28;20498;-80
2021/12/11 06:48:30;;;;;;;35.03;18.23;;;;;;;;;;5070077;28;20501;-80
2021/12/11 06:50:57;;;;;;;32.13;18.20;;;;;;;;;;5068217;28;20456;-80
2021/12/11 06:53:25;;;;;;;32.10;17.43;;;;;;;;;;5071135;28;20495;-80
2021/12/11 06:55:53;;;;;;;36.37;20.30;;;;;;;;;;5070324;28;20949;-81
2021/12/11 06:58:19;;;;;;;32.10;17.90;;;;;;;;;;5068819;28;20696;-80
2021/12/11 07:00:46;;;;;;;32.93;18.30;;;;;;;;;;5069875;28;20479;-80
2021/12/11 07:03:12;;;;;;;35.50;18.77;;;;;;;;;;5070207;28;20487;-80
2021/12/11 07:05:38;;;;;;;30.70;18.33;;;;;;;;;;5067469;28;20479;-81
2021/12/11 07:08:06;;;;;;;35.00;19.93;;;;;;;;;;5067555;28;20444;-81
2021/12/11 07:10:32;;;;;;;35.07;20.73;;;;;;;;;;5069793;28;20479;-81
2021/12/11 07:13:01;;;;;;;36.17;20.10;;;;;;;;;;5068343;28;20971;-81
2021/12/11 07:15:28;;;;;;;33.87;19.33;;;;;;;;;;5070780;28;20478;-81
2021/12/11 07:17:54;;;;;;;38.20;21.80;;;;;;;;;;5070207;28;20462;-81
2021/12/11 07:20:20;;;;;;;38.03;21.97;;;;;;;;;;5069666;28;20476;-81
2021/12/11 07:22:47;;;;;;;40.23;21.70;;;;;;;;;;5071768;28;20455;-80
2021/12/11 07:25:17;;;;;;;49.60;23.70;;;;;;;;;;5069175;28;20491;-82
2021/12/11 07:27:44;;;;;;;34.37;22.30;;;;;;;;;;5070468;28;20463;-80
2021/12/11 07:30:12;;;;;;;38.53;22.17;;;;;;;;;;5070850;28;20516;-81
2021/12/11 07:32:38;;;;;;;41.57;22.30;;;;;;;;;;5071465;28;20470;-81
2021/12/11 07:35:05;;;;;;;39.87;22.50;;;;;;;;;;5071001;28;20566;-81
2021/12/11 07:37:31;;;;;;;42.73;23.57;;;;;;;;;;5072896;28;20546;-81
2021/12/11 07:39:57;;;;;;;37.57;22.00;;;;;;;;;;5071537;28;20466;-81
2021/12/11 07:42:24;;;;;;;35.83;22.20;;;;;;;;;;5072124;28;20463;-81
2021/12/11 07:44:50;;;;;;;40.60;21.23;;;;;;;;;;5071455;28;20505;-81
2021/12/11 07:47:18;;;;;;;36.80;23.00;;;;;;;;;;5069036;28;20593;-80
2021/12/11 07:49:44;;;;;;;37.43;22.03;;;;;;;;;;5067136;28;20475;-81
2021/12/11 07:52:10;;;;;;;40.53;21.50;;;;;;;;;;5070754;28;20521;-81
2021/12/11 07:54:36;;;;;;;38.77;22.77;;;;;;;;;;5068933;28;20479;-80
2021/12/11 07:57:03;;;;;;;37.87;23.83;;;;;;;;;;5066401;28;20451;-81
2021/12/11 07:59:29;;;;;;;39.20;24.13;;;;;;;;;;5067623;28;20592;-82
2021/12/11 08:01:56;;;;;;;37.87;24.27;;;;;;;;;;5065556;28;20537;-81
2021/12/11 08:04:24;;;;;;;44.70;24.90;;;;;;;;;;5069276;28;20479;-80
2021/12/11 08:06:51;;;;;;;52.50;25.83;;;;;;;;;;5069421;28;20462;-80
2021/12/11 08:09:19;;;;;;;42.07;23.70;;;;;;;;;;5066094;28;20541;-81
2021/12/11 08:11:45;;;;;;;54.83;25.50;;;;;;;;;;5069631;28;20459;-80
2021/12/11 08:14:13;;;;;;;46.50;26.40;;;;;;;;;;5067981;28;20483;-81
2021/12/11 08:16:46;;;;;;;39.40;24.57;;;;;;;;;;5067094;28;20501;-80
2021/12/11 08:19:13;;;;;;;41.07;25.80;;;;;;;;;;5065286;28;20498;-82
2021/12/11 08:21:41;;;;;;;43.33;26.30;;;;;;;;;;5065334;28;20705;-82
2021/12/11 08:24:08;;;;;;;45.83;26.60;;;;;;;;;;5064711;28;20471;-82
2021/12/11 08:26:35;;;;;;;41.83;24.93;;;;;;;;;;5064899;28;20524;-81
2021/12/11 08:29:01;;;;;;;50.27;28.70;;;;;;;;;;5065851;28;20489;-81
2021/12/11 08:31:27;;;;;;;40.50;24.13;;;;;;;;;;5060723;28;20467;-81
2021/12/11 08:33:54;;;;;;;45.37;26.57;;;;;;;;;;5063851;28;20475;-81
2021/12/11 08:36:20;;;;;;;47.90;26.43;;;;;;;;;;5065079;28;20965;-82
2021/12/11 08:38:48;;;;;;;41.83;25.70;;;;;;;;;;5064638;28;20459;-82
2021/12/11 08:41:16;;;;;;;48.17;26.10;;;;;;;;;;5065249;28;20475;-81
2021/12/11 08:43:46;;;;;;;41.53;27.33;;;;;;;;;;5065301;28;20471;-81
2021/12/11 08:46:15;;;;;;;47.43;26.60;;;;;;;;;;5188737;22;20863;-80
2021/12/11 08:48:43;;;;;;;50.43;26.70;;;;;;;;;;5087295;28;20828;-83
2021/12/11 08:51:11;;;;;;;44.80;26.13;;;;;;;;;;5084166;28;20443;-77
2021/12/11 08:53:38;;;;;;;43.93;25.63;;;;;;;;;;5081079;28;20445;-80
2021/12/11 08:56:07;;;;;;;44.43;25.87;;;;;;;;;;5081891;28;20532;-80
2021/12/11 08:58:33;;;;;;;44.63;24.60;;;;;;;;;;5078971;28;20451;-80
2021/12/11 09:01:03;;;;;;;41.53;26.27;;;;;;;;;;5083317;28;20490;-80
2021/12/11 09:03:30;;;;;;;47.20;26.57;;;;;;;;;;5081442;28;20511;-77
2021/12/11 09:05:58;;;;;;;42.50;27.20;;;;;;;;;;5082123;28;20490;-80
2021/12/11 09:08:27;;;;;;;48.83;27.93;;;;;;;;;;5078820;28;20469;-80
2021/12/11 09:10:55;;;;;;;42.83;27.27;;;;;;;;;;5085287;28;20447;-80
2021/12/11 09:13:25;;;;;;;53.73;27.97;;;;;;;;;;5080996;28;20517;-80
2021/12/11 09:15:53;;;;;;;55.63;32.00;;;;;;;;;;5081023;28;20462;-80
2021/12/11 09:18:21;;;;;;;57.87;33.27;;;;;;;;;;5080537;28;20515;-79
2021/12/11 09:20:52;;;;;;;42.77;26.07;;;;;;;;;;5077740;28;20485;-79
2021/12/11 09:23:24;;;;;;;52.33;28.67;;;;;;;;;;5080730;28;20971;-78
2021/12/11 09:25:55;;;;;;;47.10;28.20;;;;;;;;;;5076195;28;20466;-79
2021/12/11 09:28:26;;;;;;;45.63;27.37;;;;;;;;;;5075691;28;20489;-79
2021/12/11 09:30:55;;;;;;;51.73;27.97;;;;;;;;;;5077200;28;20458;-79
2021/12/11 09:33:25;;;;;;;46.33;27.50;;;;;;;;;;5078411;28;20466;-79
2021/12/11 09:35:53;;;;;;;53.07;29.33;;;;;;;;;;5082447;28;20466;-79
2021/12/11 09:38:21;;;;;;;51.37;27.50;;;;;;;;;;5080744;28;20462;-79
2021/12/11 09:40:54;;;;;;;48.07;29.43;;;;;;;;;;5081747;28;20482;-79
2021/12/11 09:43:37;;;;;;;47.97;27.23;;;;;;;;;;5081932;28;20573;-79
2021/12/11 09:46:04;;;;;;;50.73;30.77;;;;;;;;;;5080268;28;20864;-78
2021/12/11 09:48:30;;;;;;;51.10;27.73;;;;;;;;;;5078230;28;21254;-79
2021/12/11 09:51:03;;;;;;;50.10;29.33;;;;;;;;;;5078214;28;20450;-79
2021/12/11 09:53:32;;;;;;;48.23;25.53;;;;;;;;;;5074394;28;20975;-79
2021/12/11 09:55:58;;;;;;;48.30;28.27;;;;;;;;;;5081448;28;21069;-79
2021/12/11 09:58:28;;;;;;;51.57;27.80;;;;;;;;;;5080781;28;20908;-77
2021/12/11 10:00:58;;;;;;;46.50;26.40;;;;;;;;;;5078423;28;20509;-79
2021/12/11 10:03:26;;;;;;;39.63;25.17;;;;;;;;;;5078959;28;20459;-79
2021/12/11 10:05:56;;;;;;;39.63;24.73;;;;;;;;;;5080384;28;20548;-79
2021/12/11 10:08:28;;;;;;;44.90;24.60;;;;;;;;;;5079406;28;20458;-79
2021/12/11 10:11:03;;;;;;;44.80;26.07;;;;;;;;;;5082432;28;20449;-79
2021/12/11 10:13:30;;;;;;;50.20;27.10;;;;;;;;;;5081395;28;20473;-79
2021/12/11 10:15:57;;;;;;;48.80;24.13;;;;;;;;;;5082853;28;20979;-79
2021/12/11 10:18:25;;;;;;;48.30;24.27;;;;;;;;;;5081915;28;20524;-78
2021/12/11 10:20:52;;;;;;;43.87;25.60;;;;;;;;;;5084596;28;20524;-79
2021/12/11 10:23:22;;;;;;;45.23;24.70;;;;;;;;;;5080582;28;20466;-79
2021/12/11 10:25:48;;;;;;;47.07;25.23;;;;;;;;;;5083753;28;20501;-78
2021/12/11 10:28:18;;;;;;;36.03;23.80;;;;;;;;;;5082446;28;20511;-79
2021/12/11 10:30:47;;;;;;;38.93;23.40;;;;;;;;;;5084027;28;20461;-78
2021/12/11 10:33:16;;;;;;;38.33;22.87;;;;;;;;;;5083563;28;20453;-79
2021/12/11 10:35:47;;;;;;;40.30;23.60;;;;;;;;;;5083985;28;20478;-77
2021/12/11 10:38:13;;;;;;;38.50;23.17;;;;;;;;;;5081378;28;20473;-79
2021/12/11 10:40:41;;;;;;;45.83;25.40;;;;;;;;;;5082767;28;20542;-78
2021/12/11 10:43:09;;;;;;;42.80;22.53;;;;;;;;;;5083384;28;20462;-78
2021/12/11 10:45:36;;;;;;;35.00;20.90;;;;;;;;;;5078733;28;20629;-79
2021/12/11 10:48:06;;;;;;;39.00;22.60;;;;;;;;;;5084021;28;20455;-78
2021/12/11 10:50:35;;;;;;;33.93;22.43;;;;;;;;;;5084303;28;20488;-79
2021/12/11 10:53:02;;;;;;;34.73;23.03;;;;;;;;;;5085660;28;20939;-78
2021/12/11 10:55:30;;;;;;;33.17;20.13;;;;;;;;;;5084035;28;20486;-78
2021/12/11 10:57:58;;;;;;;33.33;20.60;;;;;;;;;;5083456;28;20451;-79
2021/12/11 11:00:26;;;;;;;34.93;20.40;;;;;;;;;;5082710;28;21025;-78
2021/12/11 11:02:52;;;;;;;36.60;20.10;;;;;;;;;;5083922;28;20500;-78
2021/12/11 11:05:20;;;;;;;36.70;21.30;;;;;;;;;;5080436;28;20536;-78
2021/12/11 11:07:47;;;;;;;30.90;20.83;;;;;;;;;;5083847;28;20442;-81
2021/12/11 11:10:16;;;;;;;37.87;21.10;;;;;;;;;;5082700;28;20536;-78
2021/12/11 11:12:42;;;;;;;33.73;20.80;;;;;;;;;;5083605;28;20447;-78
2021/12/11 11:15:09;;;;;;;34.70;19.70;;;;;;;;;;5085266;28;20483;-79
2021/12/11 11:17:35;;;;;;;28.33;18.57;;;;;;;;;;5085733;28;20446;-81
2021/12/11 11:20:04;;;;;;;27.30;18.43;;;;;;;;;;5084348;28;20482;-80
2021/12/11 11:22:31;;;;;;;28.83;18.17;;;;;;;;;;5084598;28;20511;-81
2021/12/11 11:25:04;;;;;;;30.53;17.40;;;;;;;;;;5084386;28;20866;-80
2021/12/11 11:27:30;;;;;;;28.63;17.63;;;;;;;;;;5086199;28;20462;-80
2021/12/11 11:29:57;;;;;;;24.13;16.80;;;;;;;;;;5087263;28;20475;-80
2021/12/11 11:32:31;;;;;;;26.67;14.00;;;;;;;;;;5087181;28;20941;-80
2021/12/11 11:34:59;;;;;;;21.03;14.23;;;;;;;;;;5086180;28;21029;-81
2021/12/11 11:37:25;;;;;;;20.53;14.20;;;;;;;;;;5084148;28;20968;-81
2021/12/11 11:39:52;;;;;;;23.53;13.30;;;;;;;;;;5083713;28;21019;-80
2021/12/11 11:42:21;;;;;;;21.33;13.53;;;;;;;;;;5085895;28;20556;-80
2021/12/11 11:44:48;;;;;;;20.67;12.33;;;;;;;;;;5083511;28;20471;-80
2021/12/11 11:47:15;;;;;;;19.83;11.97;;;;;;;;;;5083861;28;20446;-81
2021/12/11 11:49:42;;;;;;;29.03;13.10;;;;;;;;;;5085115;28;20474;-82
2021/12/11 11:52:10;;;;;;;20.67;12.40;;;;;;;;;;5082699;28;20451;-81
2021/12/11 11:54:38;;;;;;;24.93;12.20;;;;;;;;;;5084643;28;20515;-79
2021/12/11 11:57:07;;;;;;;20.67;12.07;;;;;;;;;;5086281;28;20442;-81
2021/12/11 11:59:35;;;;;;;21.80;12.70;;;;;;;;;;5086122;28;20470;-80
2021/12/11 12:02:04;;;;;;;19.47;12.10;;;;;;;;;;5085524;28;20511;-80
2021/12/11 12:04:31;;;;;;;23.67;10.93;;;;;;;;;;5084698;28;20474;-80
2021/12/11 12:07:00;;;;;;;20.77;12.40;;;;;;;;;;5083986;28;20455;-80
2021/12/11 12:09:27;;;;;;;18.83;12.33;;;;;;;;;;5084405;28;20491;-81
2021/12/11 12:11:54;;;;;;;21.73;11.67;;;;;;;;;;5084910;28;20451;-81
2021/12/11 12:14:22;;;;;;;20.73;11.47;;;;;;;;;;5084266;28;21004;-81
2021/12/11 12:16:50;;;;;;;20.50;12.73;;;;;;;;;;5086875;28;20459;-81
2021/12/11 12:19:17;;;;;;;18.07;12.17;;;;;;;;;;5082465;28;20491;-82
2021/12/11 12:21:44;;;;;;;18.30;12.63;;;;;;;;;;5085435;28;20529;-80
2021/12/11 12:24:11;;;;;;;23.07;12.40;;;;;;;;;;5085777;28;20906;-80
2021/12/11 12:26:38;;;;;;;17.20;11.73;;;;;;;;;;5083698;28;20565;-82
2021/12/11 12:29:06;;;;;;;16.93;11.13;;;;;;;;;;5085049;28;20482;-80
2021/12/11 12:31:37;;;;;;;20.00;11.17;;;;;;;;;;5085870;28;20462;-81
2021/12/11 12:34:05;;;;;;;17.43;12.30;;;;;;;;;;5084983;28;20473;-81
2021/12/11 12:36:32;;;;;;;20.37;12.33;;;;;;;;;;5084411;28;20998;-81
2021/12/11 12:38:59;;;;;;;19.97;12.40;;;;;;;;;;5082571;28;20476;-81
2021/12/11 12:41:27;;;;;;;20.00;12.40;;;;;;;;;;5084315;28;20548;-81
2021/12/11 12:44:16;;;;;;;22.00;14.03;;;;;;;;;;5083563;28;20473;-80
2021/12/11 12:46:44;;;;;;;18.67;13.47;;;;;;;;;;5084703;28;20445;-80
2021/12/11 12:49:12;;;;;;;26.60;14.90;;;;;;;;;;5083512;28;20508;-81
2021/12/11 12:51:39;;;;;;;24.70;14.77;;;;;;;;;;5084399;28;20447;-81
2021/12/11 12:54:07;;;;;;;25.23;14.47;;;;;;;;;;5084326;28;20524;-81
2021/12/11 12:56:36;;;;;;;27.00;13.30;;;;;;;;;;5085617;28;20508;-82
2021/12/11 12:59:05;;;;;;;24.13;14.00;;;;;;;;;;5084703;28;20500;-81
2021/12/11 13:01:37;;;;;;;28.97;17.83;;;;;;;;;;5085549;28;20486;-81
2021/12/11 13:04:06;;;;;;;28.20;14.13;;;;;;;;;;5082538;28;20477;-81
2021/12/11 13:06:38;;;;;;;28.17;15.13;;;;;;;;;;5084775;28;20528;-81
2021/12/11 13:09:09;;;;;;;23.83;15.80;;;;;;;;;;5084030;28;20473;-80
2021/12/11 13:11:37;;;;;;;21.03;13.13;;;;;;;;;;5087364;28;20461;-81
2021/12/11 13:14:04;;;;;;;25.07;14.87;;;;;;;;;;5083600;28;20605;-81
2021/12/11 13:16:32;;;;;;;21.87;14.57;;;;;;;;;;5082981;28;20489;-81
2021/12/11 13:19:00;;;;;;;27.77;15.00;;;;;;;;;;5085351;28;20482;-82
2021/12/11 13:21:28;;;;;;;23.27;14.50;;;;;;;;;;5084600;28;20489;-78
2021/12/11 13:23:56;;;;;;;19.53;14.10;;;;;;;;;;5081445;28;20894;-79
2021/12/11 13:26:25;;;;;;;29.73;16.37;;;;;;;;;;5083299;28;20467;-79
2021/12/11 13:28:56;;;;;;;28.13;15.43;;;;;;;;;;5080882;28;20483;-78
2021/12/11 13:31:25;;;;;;;23.43;15.03;;;;;;;;;;5080679;28;20472;-78
2021/12/11 13:33:52;;;;;;;25.80;14.57;;;;;;;;;;5079966;28;20516;-78
2021/12/11 13:36:20;;;;;;;25.77;14.40;;;;;;;;;;5081410;28;20470;-79
2021/12/11 13:38:47;;;;;;;20.30;13.90;;;;;;;;;;5079534;28;20470;-78
2021/12/11 13:41:16;;;;;;;26.70;14.60;;;;;;;;;;5081432;28;20482;-78
2021/12/11 13:43:43;;;;;;;22.50;14.43;;;;;;;;;;5079720;28;20478;-78
2021/12/11 13:46:10;;;;;;;22.07;13.53;;;;;;;;;;5083184;28;20486;-79
2021/12/11 13:48:37;;;;;;;23.57;14.20;;;;;;;;;;5083400;28;20462;-78
2021/12/11 13:51:07;;;;;;;20.77;12.87;;;;;;;;;;5085162;28;20521;-78
2021/12/11 13:53:35;;;;;;;17.60;13.20;;;;;;;;;;5085212;28;20523;-78
2021/12/11 13:56:02;;;;;;;26.23;13.83;;;;;;;;;;5084980;28;20474;-79
2021/12/11 13:58:30;;;;;;;26.27;14.97;;;;;;;;;;5083327;28;20516;-78
2021/12/11 14:00:58;;;;;;;20.97;14.73;;;;;;;;;;5085442;28;21028;-78
2021/12/11 14:03:27;;;;;;;23.87;13.77;;;;;;;;;;5085484;28;20471;-78
2021/12/11 14:05:57;;;;;;;28.27;14.60;;;;;;;;;;5084433;28;20478;-79
2021/12/11 14:08:23;;;;;;;24.10;15.83;;;;;;;;;;5085274;28;20458;-79
2021/12/11 14:10:50;;;;;;;30.13;15.87;;;;;;;;;;5085246;28;20480;-78
2021/12/11 14:13:17;;;;;;;25.20;14.37;;;;;;;;;;5084464;28;20529;-78
2021/12/11 14:15:46;;;;;;;25.67;14.13;;;;;;;;;;5083063;28;20523;-79
2021/12/11 14:18:13;;;;;;;27.10;13.53;;;;;;;;;;5083019;28;20454;-79
2021/12/11 14:20:39;;;;;;;21.60;12.53;;;;;;;;;;5084952;28;20873;-78
2021/12/11 14:23:07;;;;;;;24.10;15.20;;;;;;;;;;5082903;28;20531;-78